Time;durP1;ratioP1;P1;durP2;ratioP2;P2;SDS_P1;SDS_P2;PMS_P1;PMS_P2;Temp;Humidity;BMP_temperature;BMP_pressure;BME280_temperature;BME280_humidity;BME280_pressure;Samples;Min_cycle;Max_cycle;Signal;HPM_P1;HPM_P2
2021/04/30 00:01:31;;;;;;;;;34.50;31.50;;;;;;;;5022140;28;11553;-80
2021/04/30 00:03:59;;;;;;;;;28.50;23.00;;;;;;;;5017827;28;11697;-79
2021/04/30 00:06:26;;;;;;;;;37.00;25.00;;;;;;;;5022635;28;11705;-78
2021/04/30 00:08:53;;;;;;;;;30.50;26.50;;;;;;;;5021371;28;11602;-78
2021/04/30 00:11:20;;;;;;;;;24.50;23.75;;;;;;;;5022439;28;11638;-78
2021/04/30 00:13:47;;;;;;;;;24.50;22.25;;;;;;;;5023553;28;11693;-79
2021/04/30 00:16:14;;;;;;;;;28.75;27.25;;;;;;;;5020152;28;12398;-79
2021/04/30 00:18:41;;;;;;;;;27.00;23.25;;;;;;;;5027457;28;11615;-79
2021/04/30 00:21:09;;;;;;;;;28.00;25.25;;;;;;;;5022323;28;11745;-79
2021/04/30 00:23:36;;;;;;;;;27.75;23.00;;;;;;;;5020277;28;11638;-80
2021/04/30 00:26:07;;;;;;;;;27.25;27.25;;;;;;;;5020377;28;11597;-79
2021/04/30 00:28:34;;;;;;;;;28.00;25.50;;;;;;;;5023483;28;11614;-79
2021/04/30 00:31:02;;;;;;;;;33.00;26.25;;;;;;;;5021190;28;11673;-79
2021/04/30 00:33:29;;;;;;;;;29.50;29.50;;;;;;;;5020937;28;11635;-79
2021/04/30 00:35:56;;;;;;;;;28.00;25.75;;;;;;;;5022701;28;11627;-79
2021/04/30 00:38:24;;;;;;;;;26.75;23.50;;;;;;;;5016811;28;11609;-79
2021/04/30 00:40:52;;;;;;;;;26.75;26.75;;;;;;;;5022527;28;12457;-80
2021/04/30 00:43:19;;;;;;;;;25.50;22.00;;;;;;;;5021953;28;12206;-79
2021/04/30 00:45:47;;;;;;;;;19.25;18.25;;;;;;;;5022216;28;11585;-82
2021/04/30 00:48:13;;;;;;;;;27.50;27.50;;;;;;;;5021199;28;12511;-81
2021/04/30 00:50:40;;;;;;;;;23.75;23.25;;;;;;;;5022077;28;11656;-80
2021/04/30 00:53:07;;;;;;;;;28.75;28.00;;;;;;;;5022399;28;11756;-81
2021/04/30 00:55:37;;;;;;;;;27.75;27.00;;;;;;;;5022094;28;11619;-80
2021/04/30 00:58:04;;;;;;;;;31.00;30.00;;;;;;;;5021840;28;11626;-79
2021/04/30 01:00:34;;;;;;;;;27.25;27.25;;;;;;;;5017712;28;11537;-79
2021/04/30 01:03:01;;;;;;;;;32.00;27.75;;;;;;;;5020547;28;11673;-80
2021/04/30 01:05:29;;;;;;;;;30.50;29.00;;;;;;;;5022260;28;12400;-82
2021/04/30 01:07:58;;;;;;;;;26.25;24.50;;;;;;;;5022896;28;11727;-82
2021/04/30 01:10:25;;;;;;;;;22.25;20.25;;;;;;;;5022858;28;11616;-82
2021/04/30 01:12:53;;;;;;;;;26.50;24.75;;;;;;;;5020078;28;12408;-82
2021/04/30 01:15:21;;;;;;;;;19.50;19.50;;;;;;;;5022362;28;11636;-82
2021/04/30 01:17:48;;;;;;;;;21.00;18.50;;;;;;;;5022456;28;11604;-82
2021/04/30 01:20:18;;;;;;;;;24.00;24.00;;;;;;;;5022772;28;11606;-82
2021/04/30 01:22:48;;;;;;;;;33.25;29.00;;;;;;;;5020323;28;11665;-82
2021/04/30 01:25:16;;;;;;;;;25.75;25.50;;;;;;;;5022869;28;11628;-81
2021/04/30 01:27:43;;;;;;;;;31.50;25.75;;;;;;;;5022361;28;11734;-81
2021/04/30 01:30:12;;;;;;;;;30.50;27.00;;;;;;;;5021347;28;12375;-83
2021/04/30 01:32:39;;;;;;;;;31.50;29.00;;;;;;;;5022745;28;11648;-83
2021/04/30 01:35:08;;;;;;;;;24.00;23.25;;;;;;;;5021478;28;11670;-82
2021/04/30 01:37:35;;;;;;;;;28.75;24.75;;;;;;;;5021227;28;11636;-82
2021/04/30 01:40:04;;;;;;;;;25.25;25.25;;;;;;;;5020949;28;11824;-83
2021/04/30 01:42:31;;;;;;;;;31.25;27.75;;;;;;;;5020754;28;11598;-81
2021/04/30 01:44:58;;;;;;;;;25.00;22.75;;;;;;;;5021430;28;11593;-83
2021/04/30 01:47:25;;;;;;;;;31.25;26.50;;;;;;;;5019557;28;11627;-83
2021/04/30 01:49:52;;;;;;;;;25.50;24.50;;;;;;;;5022591;28;11683;-83
2021/04/30 01:52:20;;;;;;;;;26.25;26.25;;;;;;;;5021983;28;11584;-81
2021/04/30 01:54:50;;;;;;;;;26.25;26.25;;;;;;;;5021741;28;11667;-81
2021/04/30 01:57:18;;;;;;;;;32.00;25.50;;;;;;;;5016125;28;12566;-80
2021/04/30 01:59:44;;;;;;;;;30.75;27.75;;;;;;;;5016729;28;11758;-80
2021/04/30 02:02:11;;;;;;;;;31.75;28.00;;;;;;;;5020214;28;11641;-80
2021/04/30 02:04:38;;;;;;;;;28.00;28.00;;;;;;;;5021378;28;11647;-80
2021/04/30 02:07:05;;;;;;;;;35.25;32.50;;;;;;;;5016431;28;11630;-80
2021/04/30 02:09:32;;;;;;;;;31.75;29.75;;;;;;;;5022081;28;11620;-80
2021/04/30 02:12:00;;;;;;;;;36.25;34.00;;;;;;;;5023420;28;11674;-80
2021/04/30 02:14:28;;;;;;;;;38.75;34.25;;;;;;;;5023273;28;11650;-80
2021/04/30 02:16:55;;;;;;;;;29.00;26.50;;;;;;;;5025786;28;11649;-80
2021/04/30 02:19:22;;;;;;;;;33.00;31.25;;;;;;;;5024683;28;11610;-80
2021/04/30 02:21:49;;;;;;;;;35.75;32.50;;;;;;;;5025037;28;12574;-78
2021/04/30 02:24:16;;;;;;;;;28.75;28.75;;;;;;;;5023092;28;11618;-78
2021/04/30 02:26:42;;;;;;;;;36.50;33.50;;;;;;;;5024944;28;11629;-78
2021/04/30 02:29:09;;;;;;;;;39.25;33.50;;;;;;;;5025665;28;11685;-78
2021/04/30 02:31:37;;;;;;;;;29.00;28.50;;;;;;;;5021659;28;11547;-78
2021/04/30 02:34:05;;;;;;;;;31.75;29.50;;;;;;;;5025993;28;11693;-78
2021/04/30 02:36:31;;;;;;;;;36.00;29.25;;;;;;;;5022129;28;11755;-78
2021/04/30 02:38:58;;;;;;;;;28.00;27.00;;;;;;;;5024064;28;11624;-79
2021/04/30 02:41:25;;;;;;;;;31.50;30.75;;;;;;;;5023789;28;11638;-78
2021/04/30 02:43:52;;;;;;;;;35.75;33.00;;;;;;;;5023590;28;12416;-78
2021/04/30 02:46:19;;;;;;;;;33.00;33.00;;;;;;;;5022578;28;12487;-78
2021/04/30 02:48:48;;;;;;;;;31.50;29.75;;;;;;;;5024592;28;11704;-78
2021/04/30 02:51:15;;;;;;;;;28.00;26.75;;;;;;;;5023478;28;11589;-79
2021/04/30 02:53:42;;;;;;;;;34.00;31.50;;;;;;;;5023288;28;11616;-79
2021/04/30 02:56:09;;;;;;;;;32.75;30.50;;;;;;;;5022459;28;11635;-79
2021/04/30 02:58:35;;;;;;;;;26.75;23.50;;;;;;;;5023563;28;11754;-79
2021/04/30 03:01:02;;;;;;;;;34.00;29.25;;;;;;;;5022939;28;11595;-80
2021/04/30 03:03:29;;;;;;;;;28.50;28.50;;;;;;;;5024173;28;11603;-80
2021/04/30 03:05:57;;;;;;;;;24.50;23.50;;;;;;;;5023407;28;11686;-80
2021/04/30 03:08:24;;;;;;;;;34.00;28.75;;;;;;;;5025213;28;11617;-80
2021/04/30 03:10:51;;;;;;;;;33.75;28.50;;;;;;;;5022302;28;11608;-79
2021/04/30 03:13:18;;;;;;;;;33.75;31.50;;;;;;;;5024770;28;12397;-80
2021/04/30 03:15:45;;;;;;;;;27.25;27.25;;;;;;;;5023117;28;11599;-82
2021/04/30 03:18:13;;;;;;;;;31.75;31.25;;;;;;;;5024648;28;11734;-80
2021/04/30 03:20:40;;;;;;;;;35.50;34.25;;;;;;;;5022942;28;11766;-81
2021/04/30 03:23:08;;;;;;;;;31.00;29.50;;;;;;;;5023879;28;11725;-79
2021/04/30 03:25:36;;;;;;;;;29.25;26.50;;;;;;;;5023713;28;11645;-79
2021/04/30 03:28:03;;;;;;;;;29.50;27.00;;;;;;;;5022553;28;11631;-83
2021/04/30 03:30:29;;;;;;;;;32.25;30.25;;;;;;;;5024230;28;11692;-79
2021/04/30 03:32:56;;;;;;;;;34.75;31.50;;;;;;;;5022807;28;11617;-78
2021/04/30 03:35:23;;;;;;;;;33.50;33.00;;;;;;;;5025584;28;11599;-81
2021/04/30 03:37:50;;;;;;;;;38.00;33.50;;;;;;;;5022984;28;11635;-80
2021/04/30 03:40:18;;;;;;;;;35.25;33.50;;;;;;;;5020390;28;11643;-81
2021/04/30 03:42:45;;;;;;;;;34.50;30.50;;;;;;;;5022707;28;11600;-79
2021/04/30 03:45:13;;;;;;;;;38.25;36.25;;;;;;;;5023148;28;11743;-79
2021/04/30 03:47:40;;;;;;;;;43.50;39.00;;;;;;;;5024382;28;11647;-81
2021/04/30 03:50:09;;;;;;;;;34.25;29.25;;;;;;;;5024605;28;11713;-79
2021/04/30 03:52:36;;;;;;;;;31.75;30.00;;;;;;;;5006388;28;11730;-80
2021/04/30 03:55:04;;;;;;;;;28.50;28.50;;;;;;;;5022392;28;11724;-81
2021/04/30 03:57:32;;;;;;;;;41.00;39.75;;;;;;;;5025014;28;11674;-83
2021/04/30 03:59:59;;;;;;;;;36.25;31.75;;;;;;;;5005737;28;11639;-80
2021/04/30 04:02:26;;;;;;;;;38.00;38.00;;;;;;;;5023307;28;11599;-79
2021/04/30 04:04:53;;;;;;;;;38.25;35.50;;;;;;;;5022737;28;11629;-78
2021/04/30 04:07:20;;;;;;;;;33.25;33.25;;;;;;;;5017886;28;11650;-79
2021/04/30 04:09:47;;;;;;;;;38.50;35.50;;;;;;;;5022918;28;11733;-80
2021/04/30 04:12:14;;;;;;;;;43.00;39.00;;;;;;;;5022323;28;11640;-80
2021/04/30 04:14:43;;;;;;;;;38.50;32.25;;;;;;;;5022754;28;11634;-80
2021/04/30 04:17:12;;;;;;;;;35.75;35.75;;;;;;;;5022417;28;11667;-78
2021/04/30 04:19:39;;;;;;;;;40.75;38.00;;;;;;;;5017042;28;11685;-80
2021/04/30 04:22:06;;;;;;;;;39.50;36.75;;;;;;;;5006145;28;11652;-79
2021/04/30 04:24:33;;;;;;;;;43.00;39.75;;;;;;;;5022247;28;11609;-79
2021/04/30 04:27:00;;;;;;;;;45.75;39.75;;;;;;;;5023082;28;11638;-79
2021/04/30 04:29:27;;;;;;;;;38.75;38.00;;;;;;;;5021952;28;11613;-78
2021/04/30 04:31:55;;;;;;;;;35.50;35.25;;;;;;;;5020113;28;11608;-79
2021/04/30 04:34:22;;;;;;;;;43.00;38.50;;;;;;;;5021475;28;11600;-80
2021/04/30 04:36:49;;;;;;;;;41.25;39.25;;;;;;;;5022583;28;11650;-81
2021/04/30 04:39:16;;;;;;;;;30.50;30.50;;;;;;;;5022302;28;11723;-80
2021/04/30 04:41:43;;;;;;;;;49.25;41.00;;;;;;;;5021919;28;11595;-80
2021/04/30 04:44:10;;;;;;;;;39.25;36.00;;;;;;;;5023072;28;11607;-80
2021/04/30 04:46:37;;;;;;;;;49.25;41.75;;;;;;;;5020607;28;11624;-80
2021/04/30 04:49:05;;;;;;;;;48.50;43.50;;;;;;;;5023587;28;12388;-79
2021/04/30 04:51:35;;;;;;;;;48.50;42.75;;;;;;;;5021040;28;11634;-79
2021/04/30 04:54:03;;;;;;;;;44.75;40.00;;;;;;;;5038137;28;11633;-78
2021/04/30 04:56:30;;;;;;;;;49.75;41.75;;;;;;;;5019858;28;11687;-78
2021/04/30 04:58:57;;;;;;;;;57.50;43.00;;;;;;;;5022732;28;11676;-78
2021/04/30 05:01:24;;;;;;;;;43.00;41.00;;;;;;;;5004591;28;12449;-78
2021/04/30 05:03:52;;;;;;;;;39.00;38.25;;;;;;;;5020969;28;11602;-78
2021/04/30 05:06:19;;;;;;;;;42.00;37.75;;;;;;;;5022133;28;11628;-79
2021/04/30 05:08:46;;;;;;;;;41.50;37.50;;;;;;;;5020632;28;11725;-79
2021/04/30 05:11:13;;;;;;;;;42.50;40.75;;;;;;;;5031952;28;12165;-82
2021/04/30 05:13:40;;;;;;;;;43.50;39.75;;;;;;;;5030008;28;11594;-81
2021/04/30 05:16:07;;;;;;;;;43.00;40.00;;;;;;;;5026770;28;11637;-80
2021/04/30 05:18:34;;;;;;;;;45.75;41.50;;;;;;;;5031675;28;11623;-80
2021/04/30 05:21:01;;;;;;;;;43.25;41.25;;;;;;;;5027531;28;11623;-79
2021/04/30 05:23:29;;;;;;;;;55.00;46.00;;;;;;;;5022070;28;11643;-78
2021/04/30 05:25:56;;;;;;;;;48.50;42.25;;;;;;;;5020080;28;11665;-77
2021/04/30 05:28:23;;;;;;;;;47.50;36.75;;;;;;;;5023372;28;11655;-81
2021/04/30 05:30:51;;;;;;;;;48.50;41.25;;;;;;;;5027859;28;11567;-81
2021/04/30 05:33:17;;;;;;;;;44.50;40.75;;;;;;;;5027096;28;11746;-78
2021/04/30 05:35:44;;;;;;;;;38.75;38.25;;;;;;;;5027103;28;11748;-80
2021/04/30 05:38:11;;;;;;;;;41.50;38.75;;;;;;;;5029928;28;11832;-80
2021/04/30 05:40:39;;;;;;;;;49.50;42.75;;;;;;;;5036089;28;11624;-78
2021/04/30 05:43:07;;;;;;;;;42.25;41.00;;;;;;;;5038546;28;11653;-78
2021/04/30 05:45:34;;;;;;;;;51.25;44.75;;;;;;;;5032171;28;11586;-78
2021/04/30 05:48:01;;;;;;;;;43.50;41.25;;;;;;;;5022267;28;11656;-77
2021/04/30 05:50:28;;;;;;;;;51.25;42.25;;;;;;;;5021615;28;12454;-80
2021/04/30 05:52:55;;;;;;;;;46.50;40.00;;;;;;;;5032626;28;11613;-80
2021/04/30 05:55:22;;;;;;;;;55.25;46.25;;;;;;;;5010727;28;11631;-79
2021/04/30 05:57:50;;;;;;;;;41.75;35.50;;;;;;;;5030695;28;11635;-81
2021/04/30 06:00:18;;;;;;;;;52.75;43.50;;;;;;;;5035043;28;11652;-83
2021/04/30 06:02:45;;;;;;;;;59.25;44.75;;;;;;;;5025404;28;11599;-82
2021/04/30 06:05:12;;;;;;;;;50.50;43.50;;;;;;;;5028479;28;12457;-77
2021/04/30 06:07:40;;;;;;;;;51.00;43.00;;;;;;;;5033875;28;11734;-76
2021/04/30 06:10:08;;;;;;;;;56.75;49.00;;;;;;;;5032546;28;11687;-76
2021/04/30 06:12:35;;;;;;;;;57.75;49.75;;;;;;;;5030327;28;11686;-74
2021/04/30 06:15:03;;;;;;;;;56.25;45.00;;;;;;;;5028766;28;11652;-76
2021/04/30 06:17:30;;;;;;;;;58.50;49.75;;;;;;;;5036502;28;11597;-75
2021/04/30 06:19:57;;;;;;;;;62.50;50.25;;;;;;;;5036811;28;11591;-76
2021/04/30 06:22:23;;;;;;;;;58.50;48.75;;;;;;;;5032682;28;11600;-78
2021/04/30 06:24:50;;;;;;;;;54.75;45.00;;;;;;;;5032179;28;11587;-74
2021/04/30 06:27:17;;;;;;;;;59.75;48.75;;;;;;;;5032366;28;13016;-74
2021/04/30 06:29:44;;;;;;;;;55.25;44.00;;;;;;;;5032872;28;12427;-73
2021/04/30 06:32:12;;;;;;;;;62.00;50.25;;;;;;;;5029583;28;11568;-75
2021/04/30 06:34:39;;;;;;;;;68.75;53.00;;;;;;;;5031451;28;11581;-75
2021/04/30 06:37:06;;;;;;;;;62.00;47.75;;;;;;;;5032313;28;12403;-74
2021/04/30 06:39:33;;;;;;;;;63.00;49.00;;;;;;;;5022723;28;11606;-77
2021/04/30 06:42:03;;;;;;;;;55.00;44.75;;;;;;;;5029303;28;12479;-74
2021/04/30 06:44:30;;;;;;;;;62.25;49.75;;;;;;;;5031305;28;11666;-75
2021/04/30 06:46:58;;;;;;;;;60.25;49.50;;;;;;;;5027567;28;11630;-75
2021/04/30 06:49:26;;;;;;;;;57.00;45.25;;;;;;;;5027307;28;11673;-74
2021/04/30 06:51:53;;;;;;;;;51.75;44.00;;;;;;;;5032225;28;12298;-72
2021/04/30 06:54:20;;;;;;;;;45.00;41.25;;;;;;;;5038000;28;12542;-74
2021/04/30 06:56:48;;;;;;;;;38.75;36.75;;;;;;;;5036219;28;11717;-75
2021/04/30 06:59:14;;;;;;;;;43.25;39.75;;;;;;;;5033032;28;11604;-74
2021/04/30 07:01:41;;;;;;;;;36.00;36.00;;;;;;;;5034591;28;11642;-75
2021/04/30 07:04:09;;;;;;;;;40.50;36.75;;;;;;;;5034234;28;11597;-75
2021/04/30 07:06:37;;;;;;;;;33.75;33.75;;;;;;;;5031178;28;11797;-72
2021/04/30 07:09:05;;;;;;;;;30.50;28.50;;;;;;;;5035428;28;11620;-73
2021/04/30 07:11:32;;;;;;;;;32.75;30.25;;;;;;;;5033132;28;11682;-75
2021/04/30 07:14:00;;;;;;;;;29.50;29.00;;;;;;;;5038424;28;11645;-75
2021/04/30 07:16:27;;;;;;;;;29.75;29.25;;;;;;;;5034834;28;11712;-75
2021/04/30 07:18:53;;;;;;;;;29.25;27.50;;;;;;;;5031105;28;12523;-74
2021/04/30 07:21:20;;;;;;;;;40.25;31.00;;;;;;;;5035642;28;11632;-76
2021/04/30 07:23:50;;;;;;;;;33.25;30.25;;;;;;;;5034329;28;11638;-73
2021/04/30 07:26:17;;;;;;;;;36.00;28.75;;;;;;;;5019396;28;11615;-75
2021/04/30 07:28:44;;;;;;;;;28.00;26.25;;;;;;;;5022470;28;11784;-73
2021/04/30 07:31:11;;;;;;;;;28.25;24.25;;;;;;;;5026815;28;11686;-74
2021/04/30 07:33:43;;;;;;;;;25.00;25.00;;;;;;;;5022847;28;11642;-75
2021/04/30 07:36:09;;;;;;;;;33.50;28.50;;;;;;;;5025042;28;11695;-73
2021/04/30 07:38:36;;;;;;;;;28.25;28.25;;;;;;;;5022827;28;11726;-76
2021/04/30 07:41:04;;;;;;;;;26.75;26.50;;;;;;;;5023676;28;12379;-75
2021/04/30 07:43:31;;;;;;;;;25.50;21.75;;;;;;;;5035234;28;11589;-75
2021/04/30 07:45:59;;;;;;;;;30.25;23.00;;;;;;;;5031722;28;11637;-73
2021/04/30 07:48:26;;;;;;;;;34.25;26.50;;;;;;;;5030537;28;11542;-73
2021/04/30 07:50:53;;;;;;;;;24.50;21.75;;;;;;;;5021226;28;11538;-75
2021/04/30 07:53:20;;;;;;;;;23.00;20.75;;;;;;;;5020739;28;11587;-74
2021/04/30 07:55:47;;;;;;;;;23.00;20.75;;;;;;;;5022162;28;11534;-74
2021/04/30 07:58:15;;;;;;;;;18.50;17.00;;;;;;;;5020518;28;11543;-74
2021/04/30 08:00:44;;;;;;;;;22.50;18.75;;;;;;;;5021587;28;11518;-74
2021/04/30 08:03:11;;;;;;;;;15.00;13.75;;;;;;;;5021567;28;11546;-73
2021/04/30 08:05:38;;;;;;;;;20.50;19.00;;;;;;;;5023432;28;11571;-73
2021/04/30 08:08:05;;;;;;;;;19.00;19.00;;;;;;;;5014572;28;11638;-73
2021/04/30 08:10:32;;;;;;;;;16.75;16.00;;;;;;;;5022156;28;11585;-73
2021/04/30 08:12:59;;;;;;;;;16.50;13.25;;;;;;;;5022242;28;12413;-73
2021/04/30 08:15:27;;;;;;;;;13.50;12.00;;;;;;;;5021238;28;11525;-74
2021/04/30 08:17:54;;;;;;;;;13.00;13.00;;;;;;;;5023635;28;11143;-75
2021/04/30 08:20:21;;;;;;;;;11.50;10.25;;;;;;;;5022389;28;11719;-77
2021/04/30 08:22:48;;;;;;;;;13.00;13.00;;;;;;;;5023369;28;11023;-74
2021/04/30 08:25:15;;;;;;;;;12.50;9.25;;;;;;;;5021582;28;10846;-75
2021/04/30 08:27:42;;;;;;;;;13.25;12.25;;;;;;;;5023212;28;10650;-75
2021/04/30 08:30:10;;;;;;;;;9.75;9.75;;;;;;;;5022580;28;11175;-77
2021/04/30 08:32:38;;;;;;;;;11.75;11.75;;;;;;;;5022693;28;10593;-73
2021/04/30 08:35:06;;;;;;;;;11.75;8.75;;;;;;;;5020750;28;10559;-78
2021/04/30 08:37:33;;;;;;;;;10.25;10.00;;;;;;;;5020983;28;10366;-75
2021/04/30 08:40:00;;;;;;;;;10.00;10.00;;;;;;;;5022624;28;10419;-76
2021/04/30 08:42:28;;;;;;;;;9.75;9.75;;;;;;;;5021883;28;10358;-74
2021/04/30 08:44:55;;;;;;;;;12.25;12.25;;;;;;;;5021478;28;11037;-75
2021/04/30 08:47:22;;;;;;;;;13.25;12.25;;;;;;;;5020992;28;10400;-78
2021/04/30 08:49:54;;;;;;;;;8.00;8.00;;;;;;;;5022412;28;11068;-76
2021/04/30 08:52:21;;;;;;;;;8.00;5.50;;;;;;;;5021438;28;10318;-77
2021/04/30 08:54:51;;;;;;;;;14.25;11.75;;;;;;;;5020826;28;9976;-78
2021/04/30 08:57:23;;;;;;;;;10.00;9.50;;;;;;;;5022868;28;10979;-74
2021/04/30 08:59:56;;;;;;;;;8.75;8.75;;;;;;;;5022190;28;9979;-72
2021/04/30 09:02:26;;;;;;;;;9.75;9.75;;;;;;;;5021761;28;9768;-72
2021/04/30 09:04:54;;;;;;;;;11.50;10.50;;;;;;;;5022367;28;9910;-78
2021/04/30 09:07:24;;;;;;;;;12.00;10.50;;;;;;;;5020801;28;9718;-77
2021/04/30 09:09:59;;;;;;;;;8.25;8.25;;;;;;;;5022275;28;9906;-76
2021/04/30 09:12:26;;;;;;;;;11.00;8.50;;;;;;;;5021830;28;9730;-78
2021/04/30 09:14:54;;;;;;;;;9.00;9.00;;;;;;;;5022276;28;9573;-79
2021/04/30 09:17:21;;;;;;;;;9.00;6.00;;;;;;;;5020387;28;9332;-75
2021/04/30 09:19:51;;;;;;;;;4.00;4.00;;;;;;;;5023706;28;9263;-78
2021/04/30 09:22:21;;;;;;;;;5.00;4.67;;;;;;;;5030215;28;9037;-79
2021/04/30 09:24:53;;;;;;;;;5.67;5.67;;;;;;;;5033136;28;9408;-78
2021/04/30 09:27:31;;;;;;;;;5.00;5.00;;;;;;;;5037780;28;9266;-80
2021/04/30 09:30:29;;;;;;;;;5.67;5.67;;;;;;;;5036851;28;9367;-75
2021/04/30 09:33:10;;;;;;;;;5.67;5.67;;;;;;;;4959911;28;9317;-76
2021/04/30 09:35:38;;;;;;;;;5.33;4.00;;;;;;;;5017457;28;9481;-79
2021/04/30 09:38:26;;;;;;;;;5.00;5.00;;;;;;;;5024699;28;9273;-76
2021/04/30 09:41:08;;;;;;;;;5.00;5.00;;;;;;;;5020667;28;9277;-74
2021/04/30 09:43:45;;;;;;;;;4.67;4.67;;;;;;;;5019956;28;9264;-77
2021/04/30 09:46:31;;;;;;;;;4.00;4.00;;;;;;;;5025831;28;9767;-76
2021/04/30 09:49:00;;;;;;;;;7.33;7.33;;;;;;;;5028065;28;9899;-76
2021/04/30 09:51:44;;;;;;;;;8.33;8.33;;;;;;;;5033956;28;9416;-75
2021/04/30 09:54:23;;;;;;;;;9.00;9.00;;;;;;;;5030016;28;9224;-75
2021/04/30 09:57:04;;;;;;;;;9.00;6.00;;;;;;;;5021679;28;9130;-75
2021/04/30 09:59:32;;;;;;;;;7.33;6.67;;;;;;;;5021437;28;9310;-76
2021/04/30 10:02:03;;;;;;;;;13.00;9.67;;;;;;;;5021060;28;9066;-72
2021/04/30 10:04:32;;;;;;;;;10.33;8.33;;;;;;;;5013335;28;9221;-75
2021/04/30 10:06:59;;;;;;;;;6.00;6.00;;;;;;;;5025294;28;9152;-75
2021/04/30 10:09:28;;;;;;;;;7.00;7.00;;;;;;;;5025654;28;9233;-76
2021/04/30 10:11:55;;;;;;;;;10.67;9.00;;;;;;;;5015877;28;10239;-77
2021/04/30 10:14:23;;;;;;;;;10.33;10.33;;;;;;;;5020902;28;9305;-76
2021/04/30 10:16:51;;;;;;;;;10.00;10.00;;;;;;;;5021570;28;9084;-76
2021/04/30 10:19:18;;;;;;;;;8.33;8.33;;;;;;;;5021519;28;8940;-76
2021/04/30 10:21:45;;;;;;;;;10.75;7.00;;;;;;;;5019965;28;8943;-74
2021/04/30 10:24:15;;;;;;;;;9.25;7.25;;;;;;;;5018067;28;8895;-73
2021/04/30 10:26:44;;;;;;;;;6.00;6.00;;;;;;;;5028999;28;8878;-75
2021/04/30 10:29:14;;;;;;;;;8.25;8.25;;;;;;;;5029253;28;8884;-75
2021/04/30 10:31:45;;;;;;;;;12.00;10.25;;;;;;;;5036260;28;8817;-75
2021/04/30 10:34:18;;;;;;;;;9.25;9.25;;;;;;;;5028197;28;8866;-75
2021/04/30 10:36:49;;;;;;;;;8.75;8.75;;;;;;;;5039330;28;8857;-75
2021/04/30 10:39:25;;;;;;;;;8.00;8.00;;;;;;;;5036692;28;8867;-73
2021/04/30 10:41:54;;;;;;;;;9.50;7.00;;;;;;;;5029137;28;8858;-75
2021/04/30 10:44:23;;;;;;;;;10.50;9.50;;;;;;;;5027015;28;8871;-76
2021/04/30 10:46:52;;;;;;;;;9.50;8.50;;;;;;;;5032981;28;8867;-75
2021/04/30 10:49:21;;;;;;;;;6.75;6.75;;;;;;;;5030961;28;8881;-79
2021/04/30 10:52:18;;;;;;;;;6.50;6.50;;;;;;;;5022568;28;8875;-75
2021/04/30 10:55:00;;;;;;;;;7.50;6.00;;;;;;;;5021152;28;8854;-73
2021/04/30 10:57:28;;;;;;;;;6.00;6.00;;;;;;;;5020597;28;8927;-73
2021/04/30 10:59:55;;;;;;;;;9.75;8.00;;;;;;;;5024900;28;8969;-74
2021/04/30 11:02:28;;;;;;;;;7.00;7.00;;;;;;;;5024473;28;9543;-74
2021/04/30 11:05:16;;;;;;;;;6.75;6.75;;;;;;;;5019690;28;9098;-74
2021/04/30 11:07:46;;;;;;;;;6.50;6.50;;;;;;;;5032899;28;8875;-75
2021/04/30 11:10:40;;;;;;;;;7.00;7.00;;;;;;;;5028231;28;8903;-75
2021/04/30 11:13:17;;;;;;;;;6.25;6.00;;;;;;;;5037429;28;8889;-76
2021/04/30 11:15:58;;;;;;;;;9.50;9.50;;;;;;;;5055952;28;8856;-74
2021/04/30 11:18:27;;;;;;;;;7.00;7.00;;;;;;;;5027921;28;8885;-72
2021/04/30 11:21:04;;;;;;;;;6.00;6.00;;;;;;;;5035434;28;8991;-74
2021/04/30 11:23:39;;;;;;;;;7.25;7.25;;;;;;;;5026112;28;8960;-76
2021/04/30 11:26:11;;;;;;;;;7.00;7.00;;;;;;;;5027380;28;8867;-74
2021/04/30 11:29:11;;;;;;;;;7.25;7.25;;;;;;;;5034252;28;8880;-75
2021/04/30 11:31:41;;;;;;;;;5.00;5.00;;;;;;;;5031601;28;8787;-75
2021/04/30 11:34:25;;;;;;;;;7.50;6.75;;;;;;;;5035092;28;8903;-72
2021/04/30 11:36:57;;;;;;;;;7.00;7.00;;;;;;;;5032801;28;8873;-75
2021/04/30 11:39:30;;;;;;;;;7.50;7.50;;;;;;;;5032872;28;8895;-72
2021/04/30 11:41:58;;;;;;;;;8.00;4.75;;;;;;;;5024880;28;9049;-72
2021/04/30 11:44:27;;;;;;;;;7.75;7.75;;;;;;;;5025732;28;8894;-71
2021/04/30 11:47:02;;;;;;;;;8.00;7.00;;;;;;;;5024768;28;8852;-71
2021/04/30 11:49:29;;;;;;;;;6.00;6.00;;;;;;;;5022437;28;8883;-72
2021/04/30 11:51:56;;;;;;;;;6.25;6.25;;;;;;;;5027156;28;8868;-73
2021/04/30 11:54:29;;;;;;;;;6.00;6.00;;;;;;;;5022818;28;8855;-72
2021/04/30 11:57:01;;;;;;;;;6.00;6.00;;;;;;;;5024538;28;8893;-72
2021/04/30 11:59:29;;;;;;;;;6.25;6.25;;;;;;;;5022920;28;8856;-72
2021/04/30 12:02:01;;;;;;;;;6.00;6.00;;;;;;;;5030766;28;8828;-72
2021/04/30 12:04:37;;;;;;;;;5.00;5.00;;;;;;;;5028471;28;8875;-72
2021/04/30 12:07:04;;;;;;;;;5.75;5.75;;;;;;;;5024176;28;8887;-72
2021/04/30 12:09:31;;;;;;;;;6.25;6.25;;;;;;;;5036680;28;8885;-73
2021/04/30 12:12:11;;;;;;;;;5.50;5.50;;;;;;;;5027228;28;8899;-72
2021/04/30 12:14:45;;;;;;;;;6.00;4.50;;;;;;;;5030894;28;8880;-72
2021/04/30 12:17:27;;;;;;;;;6.50;6.25;;;;;;;;5036068;28;8845;-72
2021/04/30 12:19:59;;;;;;;;;7.00;7.00;;;;;;;;5033281;28;8974;-73
2021/04/30 12:22:26;;;;;;;;;8.50;8.50;;;;;;;;5036246;28;8929;-73
2021/04/30 12:24:53;;;;;;;;;10.00;7.00;;;;;;;;5033987;28;8880;-73
2021/04/30 12:27:27;;;;;;;;;5.50;5.50;;;;;;;;5029868;28;8875;-73
2021/04/30 12:29:56;;;;;;;;;6.00;6.00;;;;;;;;5034609;28;8938;-73
2021/04/30 12:32:24;;;;;;;;;5.50;5.50;;;;;;;;5030250;28;8836;-73
2021/04/30 12:34:52;;;;;;;;;7.25;6.50;;;;;;;;5030799;28;8877;-73
2021/04/30 12:37:20;;;;;;;;;5.00;5.00;;;;;;;;5028805;28;8941;-73
2021/04/30 12:39:46;;;;;;;;;5.75;5.75;;;;;;;;5037462;28;8873;-73
2021/04/30 12:42:13;;;;;;;;;8.00;6.00;;;;;;;;5029206;28;8890;-72
2021/04/30 12:44:51;;;;;;;;;7.75;7.00;;;;;;;;5033853;28;8861;-73
2021/04/30 12:47:19;;;;;;;;;5.75;5.75;;;;;;;;5036677;28;8865;-73
2021/04/30 12:49:46;;;;;;;;;4.50;4.50;;;;;;;;5032836;28;8907;-73
2021/04/30 12:52:15;;;;;;;;;6.00;6.00;;;;;;;;5030910;28;8907;-72
2021/04/30 12:54:41;;;;;;;;;8.00;8.00;;;;;;;;5029047;28;8869;-72
2021/04/30 12:57:09;;;;;;;;;7.00;5.75;;;;;;;;5033955;28;9439;-72
2021/04/30 12:59:37;;;;;;;;;7.25;7.25;;;;;;;;5030177;28;8888;-72
2021/04/30 13:02:11;;;;;;;;;7.50;6.50;;;;;;;;5030490;28;8868;-73
2021/04/30 13:04:44;;;;;;;;;7.00;7.00;;;;;;;;5030093;28;8894;-72
2021/04/30 13:07:11;;;;;;;;;8.00;8.00;;;;;;;;5022570;28;8856;-72
2021/04/30 13:09:40;;;;;;;;;7.25;7.25;;;;;;;;5032338;28;8868;-73
2021/04/30 13:12:10;;;;;;;;;7.50;7.50;;;;;;;;5029209;28;8910;-73
2021/04/30 13:14:44;;;;;;;;;6.50;6.50;;;;;;;;5028540;28;8868;-71
2021/04/30 13:17:18;;;;;;;;;9.00;7.25;;;;;;;;5029573;28;9816;-73
2021/04/30 13:19:47;;;;;;;;;6.50;6.50;;;;;;;;5034570;28;8958;-74
2021/04/30 13:22:15;;;;;;;;;6.50;6.50;;;;;;;;5031863;28;8875;-71
2021/04/30 13:24:43;;;;;;;;;11.25;6.75;;;;;;;;5031498;28;8877;-73
2021/04/30 13:27:12;;;;;;;;;8.50;6.75;;;;;;;;5033536;28;8890;-72
2021/04/30 13:29:40;;;;;;;;;8.25;6.25;;;;;;;;5031706;28;8856;-73
2021/04/30 13:32:11;;;;;;;;;13.25;11.25;;;;;;;;5032782;28;9502;-73
2021/04/30 13:34:41;;;;;;;;;8.00;7.75;;;;;;;;5029287;28;8881;-72
2021/04/30 13:37:11;;;;;;;;;7.50;7.50;;;;;;;;5026653;28;8859;-73
2021/04/30 13:39:39;;;;;;;;;6.75;6.00;;;;;;;;5025301;28;8859;-73
2021/04/30 13:42:24;;;;;;;;;7.00;6.00;;;;;;;;5017847;28;8990;-71
2021/04/30 13:44:53;;;;;;;;;6.50;4.75;;;;;;;;5020817;28;8895;-73
2021/04/30 13:47:20;;;;;;;;;8.25;8.25;;;;;;;;5022892;28;8917;-73
2021/04/30 13:49:49;;;;;;;;;8.00;7.50;;;;;;;;5032117;28;8877;-73
2021/04/30 13:52:18;;;;;;;;;8.00;8.00;;;;;;;;5023686;28;8895;-72
2021/04/30 13:54:45;;;;;;;;;7.00;7.00;;;;;;;;5029227;28;8869;-72
2021/04/30 13:57:12;;;;;;;;;7.00;7.00;;;;;;;;5023342;28;8860;-72
2021/04/30 13:59:40;;;;;;;;;6.25;6.25;;;;;;;;5018978;28;8994;-73
2021/04/30 14:02:08;;;;;;;;;6.75;6.75;;;;;;;;5022018;28;8824;-72
2021/04/30 14:04:35;;;;;;;;;9.00;8.00;;;;;;;;5017242;28;8882;-72
2021/04/30 14:07:03;;;;;;;;;9.75;9.75;;;;;;;;5024156;28;8884;-73
2021/04/30 14:09:31;;;;;;;;;9.50;8.00;;;;;;;;5023645;28;8975;-73
2021/04/30 14:11:58;;;;;;;;;7.25;7.25;;;;;;;;5027918;28;8982;-71
2021/04/30 14:14:25;;;;;;;;;8.25;8.25;;;;;;;;5025075;28;8876;-72
2021/04/30 14:16:52;;;;;;;;;6.50;6.50;;;;;;;;5018353;28;8948;-72
2021/04/30 14:19:19;;;;;;;;;5.50;5.50;;;;;;;;5025649;28;8876;-73
2021/04/30 14:21:46;;;;;;;;;5.75;5.75;;;;;;;;5025026;28;8895;-73
2021/04/30 14:24:13;;;;;;;;;8.25;6.00;;;;;;;;5023741;28;9407;-73
2021/04/30 14:26:41;;;;;;;;;7.00;7.00;;;;;;;;5026244;28;8859;-71
2021/04/30 14:29:09;;;;;;;;;9.75;9.75;;;;;;;;5026716;28;8876;-72
2021/04/30 14:31:38;;;;;;;;;9.50;7.75;;;;;;;;5025797;28;8832;-72
2021/04/30 14:34:05;;;;;;;;;7.75;7.75;;;;;;;;5023801;28;8891;-73
2021/04/30 14:36:32;;;;;;;;;7.50;6.25;;;;;;;;5024374;28;8859;-73
2021/04/30 14:39:00;;;;;;;;;6.75;5.00;;;;;;;;5024688;28;8884;-73
2021/04/30 14:41:27;;;;;;;;;6.75;6.75;;;;;;;;5029120;28;9370;-72